• Join FlightAware (Why Join?)
  • Login
  • US Flag GB Flag 
09:50 EDT


 

Airport Tracker/Info


-or-


 

Live Flight TrackerFlight Track Log ✈ ASQ6151 ✈ 08-Jul-2013 ✈ KBWI - KORD

Flight Track Log - Related Links

Times and Time Zones

All times are in EDT time to prevent confusion due to time zone crossing. See the ASQ6151 flight status page for this flight to view local times or setup timezone preferences in your user account.

Time Position Orientation Groundspeed Altitude Reporting Facility
EDT Latitude Longitude Course Direction KTS MPH feet Rate Location/Type
05:41 39.1833 -76.7000 211° Southwest 159 183 900  Level Potomac TRACON
05:42 39.1833 -76.7667 270° West 205 236 2,600 1,920 Climbing Potomac TRACON
05:43 39.2000 -76.8500 284° West 245 282 4,800 2,340 Climbing Potomac TRACON
05:44 39.2000 -77.0270 270° West  Level FlightAware Approximate
05:45 39.1996 -77.1504 218° Southwest  Level FlightAware Approximate
05:45 39.1989 -77.0244 270° West 247 284 10,000  Level Washington Center
05:46 39.1189 -77.2169 211° Southwest  Level FlightAware Approximate
05:46 39.1747 -77.1150 251° West 256 295 11,400  Level Washington Center
05:47 39.0368 -77.2807 211° Southwest  Level FlightAware Approximate
05:47 39.1464 -77.2189 251° West 285 328 12,500  Level Washington Center
05:48 39.1156 -77.3331 251° West 321 369 13,700 1,080 Climbing Washington Center
05:49 39.0864 -77.4581 253° West 348 400 14,700 1,020 Climbing Washington Center
05:50 39.0678 -77.5833 259° West 364 419 15,900 1,140 Climbing Washington Center
05:51 39.0447 -77.7111 257° West 371 427 17,000 960 Climbing Washington Center
05:52 39.0239 -77.8386 258° West 371 427 17,900 900 Climbing Washington Center
05:53 39.0025 -77.9661 258° West 371 427 18,900 1,020 Climbing Washington Center
05:54 38.9833 -78.0858 258° West 371 427 20,000 1,080 Climbing Washington Center
05:55 38.9619 -78.2106 258° West 371 427 21,100 1,020 Climbing Washington Center
05:56 38.9653 -78.3442 272° West 371 427 22,200 1,080 Climbing Washington Center
05:57 38.9686 -78.4750 272° West 366 421 23,300 1,020 Climbing Washington Center
05:58 38.9717 -78.6061 272° West 366 421 24,300 1,020 Climbing Washington Center
05:59 38.9767 -78.7372 273° West 366 421 25,400 1,080 Climbing Washington Center
06:00 38.9792 -78.8708 271° West 371 427 26,500 1,080 Climbing Washington Center
06:01 38.9881 -79.0019 275° West 371 427 27,600 1,080 Climbing Washington Center
06:02 38.9989 -79.1333 276° West 371 427 28,700 1,080 Climbing Washington Center
06:03 39.0094 -79.2647 276° West 371 427 29,800 1,080 Climbing Washington Center
06:04 39.0181 -79.3961 275° West 371 427 30,900 1,020 Climbing Washington Center
06:05 39.0283 -79.5278 276° West 371 427 31,900 960 Climbing Washington Center
06:06 39.0383 -79.6644 275° West 376 433 32,900 900 Climbing Washington Center
06:07 39.0506 -79.7936 277° West 371 427 33,800 960 Climbing Washington Center
06:08 39.0603 -79.9278 275° West 371 427 34,800 900 Climbing Washington Center
06:09 39.0661 -80.0564 273° West 371 427 35,700 540 Climbing Washington Center
06:10 39.0778 -80.1908 276° West 371 427 36,000 120 Climbing Washington Center
06:11 39.0825 -80.3461 272° West 390 449 36,000  Level Indianapolis Center
06:12 39.0917 -80.4922 275° West 407 468 36,000  Level Indianapolis Center
06:13 39.1008 -80.6389 275° West 413 475 36,000  Level Indianapolis Center
06:14 39.1375 -80.7717 290° West 402 463 36,000  Level Indianapolis Center
06:15 39.1917 -80.8936 300° West 395 455 36,000  Level Indianapolis Center
06:16 39.2478 -81.0175 300° West 401 461 36,000  Level Indianapolis Center
06:17 39.3042 -81.1447 300° West 410 472 36,000  Level Indianapolis Center
06:18 39.3592 -81.2706 300° West 404 465 36,000  Level Indianapolis Center
06:19 39.4250 -81.4192 300° West 398 458 36,000  Level Indianapolis Center
06:20 39.4797 -81.5425 300° West 396 456 36,000  Level Indianapolis Center
06:21 39.5322 -81.6661 299° West 394 453 36,000  Level Indianapolis Center
06:22 39.5861 -81.7886 300° West 394 453 36,000  Level Indianapolis Center
06:23 39.6403 -81.9144 299° West 399 459 36,000  Level Indianapolis Center
06:24 39.6956 -82.0419 299° West 405 466 36,000  Level Indianapolis Center
06:25 39.7522 -82.1758 299° West 407 468 36,000  Level Indianapolis Center
06:26 39.8078 -82.3061 299° West 409 471 36,000  Level Indianapolis Center
06:27 39.8639 -82.4353 300° West 407 468 36,000  Level Indianapolis Center
06:28 39.9167 -82.5617 299° West 397 457 36,000  Level Indianapolis Center
06:29 39.9694 -82.6867 299° West 393 452 36,000  Level Indianapolis Center
06:30 40.0219 -82.8111 299° West 390 449 36,000  Level Indianapolis Center
06:31 40.0739 -82.9361 299° West 391 450 36,000  Level Indianapolis Center
06:32 40.1264 -83.0608 299° West 391 450 36,000  Level Indianapolis Center
06:33 40.1789 -83.1869 299° West 393 452 36,000  Level Indianapolis Center
06:34 40.2311 -83.3142 298° West 397 457 36,000  Level Indianapolis Center
06:36 40.2839 -83.4417 299° West 397 457 36,000  Level Indianapolis Center
06:37 40.3358 -83.5711 298° West 401 461 36,000  Level Indianapolis Center
06:38 40.3894 -83.6997 299° West 401 461 36,000  Level Indianapolis Center
06:39 40.4419 -83.8289 298° West 400 460 36,000  Level Indianapolis Center
06:40 40.4947 -83.9611 298° West 407 468 36,000  Level Indianapolis Center
06:41 40.5478 -84.0919 298° West 404 465 36,000 -360 Level Indianapolis Center
06:42 40.6006 -84.2233 298° West 404 465 35,300 -900 Descending Indianapolis Center
06:43 40.6550 -84.3592 298° West 414 476 34,200 -660 Descending Indianapolis Center
06:44 40.7089 -84.4958 298° West 417 480 34,000 -120 Descending Indianapolis Center
06:45 40.7625 -84.6317 298° West 414 476 34,000  Level Indianapolis Center
06:46 40.8164 -84.7706 297° West 420 483 34,000  Level Indianapolis Center
06:47 40.8686 -84.9094 296° West 419 482 34,000  Level Indianapolis Center
06:47 40.9014 -84.9978 296° West 420 483 34,000  Level Chicago Center
06:48 40.9525 -85.1344 296° West 416 479 34,000  Level Chicago Center
06:49 41.0131 -85.2978 296° West 412 474 34,000 -60 Level Chicago Center
06:50 41.0625 -85.4333 296° West 411 473 33,900 -1,440 Descending Chicago Center
06:51 41.1133 -85.5689 296° West 410 472 31,200 -2,760 Descending Chicago Center
06:52 41.1672 -85.7161 296° West 437 503 28,400 -2,700 Descending Chicago Center
06:53 41.2206 -85.8628 296° West 440 506 25,800 -1,740 Descending Chicago Center
06:54 41.2706 -86.0017 296° West 420 483 25,000 -420 Descending Chicago Center
06:55 41.3053 -86.1403 288° West 398 458 25,000  Level Chicago Center
06:56 41.3358 -86.2864 286° West 406 467 25,000 -840 Level Chicago Center
06:57 41.3661 -86.4300 286° West 406 467 23,400 -2,040 Descending Chicago Center
06:59 41.3958 -86.5711 286° West 399 459 21,000 -2,460 Descending Chicago Center
07:00 41.4228 -86.7050 285° West 381 438 18,500 -2,340 Descending Chicago Center
07:01 41.4447 -86.8289 283° West 359 413 16,300 -1,740 Descending Chicago Center
07:02 41.4528 -86.9581 275° West 351 404 15,000 -1,440 Descending Chicago Center
07:03 41.4628 -87.0817 276° West 339 390 13,400 -1,620 Descending Chicago Center
07:04 41.5161 -87.1850 305° West 350 403 11,800 -1,200 Descending Chicago Center
07:05 41.5775 -87.2808 311° West 344 396 11,000 -420 Descending Chicago Center
07:06 41.6472 -87.3881 311° West 325 374 11,000  Level Chicago Center
07:07 41.7075 -87.4825 311° West 334 384 11,000 -360 Level Chicago Center
07:08 41.7647 -87.5703 311° West 314 361 10,300 -960 Descending Chicago Center
07:09 41.8156 -87.6478 311° West 284 327 9,100 -1,140 Descending Chicago Center
07:10 41.8803 -87.6922 333° Northwest 295 339 8,000 -1,080 Descending Chicago Center
07:11 41.9564 -87.6906 North 277 319 7,000 -660 Descending Chicago Center
07:12 42.0211 -87.6872 North 240 276 6,700 -720 Descending Chicago Center
07:13 42.0803 -87.6836 North 218 251 5,600 -1,140 Descending Chicago Center
07:14 42.1189 -87.7181 327° Northwest 187 215 4,400 -1,020 Descending Chicago Center
07:15 42.0997 -87.7681 243° Southwest 162 186 3,600 -900 Descending Chicago Center
07:16 42.0742 -87.8078 229° Southwest 149 171 2,600 -960 Descending Chicago Center
07:17 42.0408 -87.8500 223° Southwest 140 161 1,700 -720 Descending Chicago Center
07:18 42.0136 -87.8806 220° Southwest 130 150 1,200 -540 Descending Chicago Center